Schedule Details


Flight Number: CTN321
Departure: Ruzyne (LKPR) at 10:40
Arrival: Franjo Tudman (LDZA) at 12:00
Route: VOZ Z21 PISAM DCT MUREG DCT PETOV

Weather Information
LKPR 180000Z 11006KT CAVOK 19/12 Q1017 NOSIG
LDZA 180000Z 00000KT CAVOK 18/16 Q1017 NOSIG
Schedule Frequency

Route Map